Time;durP1;ratioP1;P1;durP2;ratioP2;P2;SDS_P1;SDS_P2;PMS_P1;PMS_P2;Temp;Humidity;BMP_temperature;BMP_pressure;BME280_temperature;BME280_humidity;BME280_pressure;Samples;Min_cycle;Max_cycle;Signal;HPM_P1;HPM_P2
2021/08/02 00:00:17;;;;;;;;;;;;;;;24.87;65.03;100030.69;5057097;28;1885;-52
2021/08/02 00:03:07;;;;;;;;;;;;;;;24.87;63.89;100028.84;5053937;28;1478;-52
2021/08/02 00:05:36;;;;;;;;;;;;;;;24.92;64.18;100034.50;5055108;28;1973;-52
2021/08/02 00:08:03;;;;;;;;;;;;;;;24.90;65.16;100035.72;5063436;28;2013;-52
2021/08/02 00:10:37;;;;;;;;;;;;;;;24.90;64.27;100027.63;5070261;28;1652;-52
2021/08/02 00:13:14;;;;;;;;;;;;;;;24.92;63.21;100034.50;5061754;28;1843;-52
2021/08/02 00:15:50;;;;;;;;;;;;;;;24.88;63.49;100022.38;5053918;28;1071;-52
2021/08/02 00:18:19;;;;;;;;;;;;;;;24.90;63.16;100022.22;5067380;28;1829;-52
2021/08/02 00:20:45;;;;;;;;;;;;;;;24.95;63.16;100036.84;5071551;28;1729;-52
2021/08/02 00:23:12;;;;;;;;;;;;;;;24.91;64.50;100030.13;5064113;28;1942;-52
2021/08/02 00:25:39;;;;;;;;;;;;;;;24.90;64.53;100024.91;5054047;28;1906;-52
2021/08/02 00:28:08;;;;;;;;;;;;;;;24.93;64.60;100030.78;5060966;28;1844;-52
2021/08/02 00:30:37;;;;;;;;;;;;;;;24.94;64.85;100032.44;5072288;28;1735;-52
2021/08/02 00:33:09;;;;;;;;;;;;;;;24.92;63.80;100031.78;5060896;28;1885;-52
2021/08/02 00:35:42;;;;;;;;;;;;;;;24.93;64.21;100036.19;5060884;28;1648;-52
2021/08/02 00:38:10;;;;;;;;;;;;;;;24.96;63.59;100016.03;5060981;28;1747;-52
2021/08/02 00:41:03;;;;;;;;;;;;;;;24.96;62.68;100026.84;5065925;28;1899;-52
2021/08/02 00:43:51;;;;;;;;;;;;;;;24.99;63.62;100040.81;5061222;28;1486;-52
2021/08/02 00:46:25;;;;;;;;;;;;;;;24.92;64.12;100020.97;5063287;28;1298;-52
2021/08/02 00:48:58;;;;;;;;;;;;;;;24.94;63.51;100035.13;5061971;28;1436;-52
2021/08/02 00:51:27;;;;;;;;;;;;;;;24.89;64.01;100028.63;5069270;28;1003;-52
2021/08/02 00:54:00;;;;;;;;;;;;;;;24.96;63.78;100034.94;5063254;28;1925;-52
2021/08/02 00:56:28;;;;;;;;;;;;;;;24.88;62.75;100026.97;5071756;28;1523;-52
2021/08/02 00:58:55;;;;;;;;;;;;;;;24.94;62.12;100045.97;5071575;28;1519;-52
2021/08/02 01:01:23;;;;;;;;;;;;;;;24.93;63.34;100035.31;5064335;28;1490;-52
2021/08/02 01:03:58;;;;;;;;;;;;;;;24.94;62.83;100034.31;5062160;28;1980;-52
2021/08/02 01:06:31;;;;;;;;;;;;;;;24.96;62.41;100035.78;5064866;28;1940;-52
2021/08/02 01:09:02;;;;;;;;;;;;;;;24.93;61.84;100044.31;5062116;28;2004;-52
2021/08/02 01:11:39;;;;;;;;;;;;;;;24.91;61.20;100032.84;5070391;28;1576;-52
2021/08/02 01:14:07;;;;;;;;;;;;;;;24.94;62.66;100042.41;5064528;28;1795;-52
2021/08/02 01:16:35;;;;;;;;;;;;;;;24.94;62.14;100039.72;5069922;28;1610;-52
2021/08/02 01:19:08;;;;;;;;;;;;;;;24.91;62.31;100038.25;5064462;28;1382;-52
2021/08/02 01:21:42;;;;;;;;;;;;;;;24.95;61.58;100052.22;5057369;28;1531;-54
2021/08/02 01:24:15;;;;;;;;;;;;;;;24.94;62.92;100048.66;5057288;28;1983;-52
2021/08/02 01:26:56;;;;;;;;;;;;;;;24.91;62.95;100037.38;5058019;28;2041;-52
2021/08/02 01:29:46;;;;;;;;;;;;;;;24.97;62.82;100042.88;5062548;28;1502;-52
2021/08/02 01:32:16;;;;;;;;;;;;;;;24.85;62.84;100033.59;5059824;28;1840;-52
2021/08/02 01:34:43;;;;;;;;;;;;;;;24.86;62.43;100048.78;5059131;28;1657;-52
2021/08/02 01:37:14;;;;;;;;;;;;;;;24.88;62.13;100044.03;5067261;28;1379;-52
2021/08/02 01:39:49;;;;;;;;;;;;;;;24.86;62.80;100045.25;5062311;28;1888;-53
2021/08/02 01:42:16;;;;;;;;;;;;;;;24.86;61.96;100040.69;5074761;28;1598;-53
2021/08/02 01:44:50;;;;;;;;;;;;;;;24.89;62.43;100055.66;5067705;28;1975;-52
2021/08/02 01:47:24;;;;;;;;;;;;;;;24.91;61.91;100046.38;5068103;28;1011;-52
2021/08/02 01:49:54;;;;;;;;;;;;;;;24.87;62.73;100047.78;5075781;28;1934;-52
2021/08/02 01:52:27;;;;;;;;;;;;;;;24.83;61.76;100041.06;5075979;28;2005;-52
2021/08/02 01:55:02;;;;;;;;;;;;;;;24.90;62.49;100046.53;5058546;28;1945;-52
2021/08/02 01:57:35;;;;;;;;;;;;;;;24.87;62.22;100052.31;5067567;28;1536;-52
2021/08/02 02:02:57;;;;;;;;;;;;;;;24.81;61.98;100043.13;5051229;22;1674;-54
2021/08/02 02:05:32;;;;;;;;;;;;;;;24.90;62.23;100058.19;5016249;28;1955;-52
2021/08/02 02:08:16;;;;;;;;;;;;;;;24.81;61.74;100057.47;5016083;28;1971;-53
2021/08/02 02:10:54;;;;;;;;;;;;;;;24.83;61.27;100057.31;5029393;28;1774;-53
2021/08/02 02:13:39;;;;;;;;;;;;;;;24.78;62.60;100057.03;5034525;28;1637;-52
2021/08/02 02:16:15;;;;;;;;;;;;;;;24.87;62.80;100055.03;5035459;28;1015;-53
2021/08/02 02:18:52;;;;;;;;;;;;;;;24.87;63.37;100057.72;5020614;28;1940;-53
2021/08/02 02:21:19;;;;;;;;;;;;;;;24.79;62.49;100050.59;5018329;28;1785;-52
2021/08/02 02:23:48;;;;;;;;;;;;;;;24.87;62.57;100069.41;5015759;28;1721;-52
2021/08/02 02:26:19;;;;;;;;;;;;;;;24.79;62.39;100072.25;5032679;28;1898;-53
2021/08/02 02:28:46;;;;;;;;;;;;;;;24.73;62.74;100064.84;5014162;28;1511;-53
2021/08/02 02:31:24;;;;;;;;;;;;;;;24.80;63.65;100054.97;5016449;28;1056;-52
2021/08/02 02:33:53;;;;;;;;;;;;;;;24.83;61.98;100065.41;5029278;28;2370;-53
2021/08/02 02:36:21;;;;;;;;;;;;;;;24.78;61.95;100057.03;5016813;28;2066;-52
2021/08/02 02:38:54;;;;;;;;;;;;;;;24.75;61.70;100070.91;5031024;28;1912;-53
2021/08/02 02:41:27;;;;;;;;;;;;;;;24.81;62.55;100064.78;5028831;28;1936;-52
2021/08/02 02:43:58;;;;;;;;;;;;;;;24.80;62.30;100073.91;5033211;28;1943;-53
2021/08/02 02:46:25;;;;;;;;;;;;;;;24.87;62.23;100068.56;5020759;28;1969;-52
2021/08/02 02:49:12;;;;;;;;;;;;;;;24.75;61.39;100070.91;5019947;28;1528;-52
2021/08/02 02:51:42;;;;;;;;;;;;;;;24.71;62.78;100053.41;5031306;28;1797;-53
2021/08/02 02:54:12;;;;;;;;;;;;;;;24.75;62.89;100065.50;5030671;28;1056;-53
2021/08/02 02:56:45;;;;;;;;;;;;;;;24.70;61.13;100067.97;5015419;28;1645;-52
2021/08/02 02:59:12;;;;;;;;;;;;;;;24.67;62.40;100058.38;5031426;28;1999;-53
2021/08/02 03:01:40;;;;;;;;;;;;;;;24.72;62.75;100065.91;5019285;28;1562;-53
2021/08/02 03:04:09;;;;;;;;;;;;;;;24.74;62.25;100080.06;5029112;28;2873;-53
2021/08/02 03:06:39;;;;;;;;;;;;;;;24.72;62.08;100065.91;5029377;28;1964;-53
2021/08/02 03:09:06;;;;;;;;;;;;;;;24.69;61.84;100086.06;5028517;28;1787;-53
2021/08/02 03:11:34;;;;;;;;;;;;;;;24.37;62.48;100089.97;5030030;28;1989;-53
2021/08/02 03:14:07;;;;;;;;;;;;;;;24.14;63.11;100090.91;5029656;28;1637;-52
2021/08/02 03:16:34;;;;;;;;;;;;;;;24.27;62.05;100094.81;5024599;28;1495;-53
2021/08/02 03:19:01;;;;;;;;;;;;;;;24.55;61.87;100085.06;5022282;28;2060;-53
2021/08/02 03:21:29;;;;;;;;;;;;;;;24.69;61.63;100074.38;5018002;28;1192;-52
2021/08/02 03:24:02;;;;;;;;;;;;;;;24.79;62.65;100077.66;5024146;28;1755;-52
2021/08/02 03:26:31;;;;;;;;;;;;;;;24.79;62.42;100089.28;5029440;28;1967;-52
2021/08/02 03:29:19;;;;;;;;;;;;;;;24.80;63.10;100087.41;5023189;28;1627;-52
2021/08/02 03:31:51;;;;;;;;;;;;;;;24.90;63.13;100093.34;5026888;28;1628;-52
2021/08/02 03:34:30;;;;;;;;;;;;;;;24.86;62.17;100089.34;5028400;28;1703;-52
2021/08/02 03:36:59;;;;;;;;;;;;;;;24.92;62.18;100093.16;5014471;28;1800;-52
2021/08/02 03:39:28;;;;;;;;;;;;;;;24.92;62.94;100088.59;5032948;28;1400;-52
2021/08/02 03:41:56;;;;;;;;;;;;;;;24.97;62.47;100086.16;5014852;28;1070;-52
2021/08/02 03:44:27;;;;;;;;;;;;;;;24.97;62.11;100088.03;5018750;28;1789;-52
2021/08/02 03:46:59;;;;;;;;;;;;;;;24.95;62.70;100093.63;5025289;28;1914;-52
2021/08/02 03:49:29;;;;;;;;;;;;;;;24.99;62.94;100107.63;5026939;28;1933;-52
2021/08/02 03:51:57;;;;;;;;;;;;;;;24.99;62.33;100094.91;5014355;28;1830;-51
2021/08/02 03:54:30;;;;;;;;;;;;;;;25.03;63.06;100089.97;5026729;28;1031;-52
2021/08/02 03:57:02;;;;;;;;;;;;;;;25.04;61.95;100088.09;5019388;28;1900;-51
2021/08/02 03:59:30;;;;;;;;;;;;;;;25.10;62.47;100103.56;5031489;28;1865;-51
2021/08/02 04:02:07;;;;;;;;;;;;;;;25.07;62.08;100090.41;5026671;28;1846;-52
2021/08/02 04:04:42;;;;;;;;;;;;;;;25.06;62.38;100086.03;5016025;28;1644;-52
2021/08/02 04:07:12;;;;;;;;;;;;;;;25.13;62.12;100095.06;5018074;28;1567;-52
2021/08/02 04:09:38;;;;;;;;;;;;;;;25.12;61.93;100087.97;5027428;28;2032;-52
2021/08/02 04:12:05;;;;;;;;;;;;;;;25.18;62.22;100092.59;5032492;28;1916;-52
2021/08/02 04:14:35;;;;;;;;;;;;;;;25.16;62.80;100094.66;5013600;28;1120;-52
2021/08/02 04:17:02;;;;;;;;;;;;;;;25.21;62.00;100103.06;5018828;28;1928;-52
2021/08/02 04:19:35;;;;;;;;;;;;;;;25.24;62.89;100093.75;5020263;28;1976;-51
2021/08/02 04:22:02;;;;;;;;;;;;;;;25.27;62.65;100105.03;5014526;28;1840;-51
2021/08/02 04:24:30;;;;;;;;;;;;;;;25.29;62.76;100099.44;5024085;28;1069;-52
2021/08/02 04:26:58;;;;;;;;;;;;;;;25.27;62.32;100074.41;5028633;28;1906;-51
2021/08/02 04:29:25;;;;;;;;;;;;;;;25.31;62.77;100091.94;5028671;28;1544;-51
2021/08/02 04:31:54;;;;;;;;;;;;;;;25.31;61.85;100086.53;5013255;28;1821;-52
2021/08/02 04:34:21;;;;;;;;;;;;;;;25.37;62.24;100083.88;5030475;28;1994;-52
2021/08/02 04:36:51;;;;;;;;;;;;;;;25.44;62.21;100096.63;5013211;28;1064;-52
2021/08/02 04:39:19;;;;;;;;;;;;;;;25.40;62.43;100091.59;5014689;28;1509;-52
2021/08/02 04:41:46;;;;;;;;;;;;;;;25.42;62.36;100077.03;5019838;28;1812;-52
2021/08/02 04:44:15;;;;;;;;;;;;;;;25.47;62.52;100091.69;5028826;28;1931;-51
2021/08/02 04:46:42;;;;;;;;;;;;;;;25.54;61.39;100105.25;5030680;28;1969;-52
2021/08/02 04:49:11;;;;;;;;;;;;;;;25.54;61.87;100102.56;5030224;28;1773;-52
2021/08/02 04:51:39;;;;;;;;;;;;;;;25.55;62.35;100115.91;5030980;28;1940;-52
2021/08/02 04:54:10;;;;;;;;;;;;;;;25.55;62.41;100112.38;5016233;28;1143;-52
2021/08/02 04:56:37;;;;;;;;;;;;;;;25.53;61.74;100111.72;5030929;28;2070;-52
2021/08/02 04:59:06;;;;;;;;;;;;;;;25.52;62.44;100110.84;5026064;28;1836;-52
2021/08/02 05:01:35;;;;;;;;;;;;;;;25.48;61.85;100103.34;5025075;28;1849;-51
2021/08/02 05:04:02;;;;;;;;;;;;;;;25.49;61.63;100111.25;4990027;28;1170;-52
2021/08/02 05:06:32;;;;;;;;;;;;;;;25.50;62.40;100118.34;4992443;28;1903;-51
2021/08/02 05:08:58;;;;;;;;;;;;;;;25.58;61.51;100122.78;4992365;28;1840;-52
2021/08/02 05:11:31;;;;;;;;;;;;;;;25.53;62.33;100112.56;4992451;28;1869;-51
2021/08/02 05:13:59;;;;;;;;;;;;;;;25.52;61.78;100121.69;4992527;28;1834;-51
2021/08/02 05:16:25;;;;;;;;;;;;;;;25.54;62.09;100119.63;4992274;28;1941;-52
2021/08/02 05:18:53;;;;;;;;;;;;;;;25.51;62.59;100125.44;4991639;28;2028;-52
2021/08/02 05:21:20;;;;;;;;;;;;;;;25.57;61.79;100121.13;4973208;28;932;-51
2021/08/02 05:23:49;;;;;;;;;;;;;;;25.54;62.43;100118.78;4990412;28;1923;-52
2021/08/02 05:26:24;;;;;;;;;;;;;;;25.50;61.94;100120.22;4991882;28;1977;-52
2021/08/02 05:29:00;;;;;;;;;;;;;;;25.53;61.86;100133.38;4986796;28;1520;-52
2021/08/02 05:31:26;;;;;;;;;;;;;;;25.55;62.71;100136.72;4991635;28;1849;-52
2021/08/02 05:33:54;;;;;;;;;;;;;;;25.51;62.63;100130.03;4978199;28;1244;-51
2021/08/02 05:36:21;;;;;;;;;;;;;;;25.56;62.24;100116.72;4992210;28;1743;-52
2021/08/02 05:38:51;;;;;;;;;;;;;;;25.52;62.17;100112.75;4991178;28;1972;-51
2021/08/02 05:41:19;;;;;;;;;;;;;;;25.52;62.81;100126.28;4987957;28;1985;-51
2021/08/02 05:43:46;;;;;;;;;;;;;;;25.54;62.29;100118.78;4991959;28;1909;-51
2021/08/02 05:46:17;;;;;;;;;;;;;;;25.52;62.63;100127.09;4991775;28;1883;-52
2021/08/02 05:48:47;;;;;;;;;;;;;;;25.52;62.11;100120.84;4990883;28;1825;-52
2021/08/02 05:51:17;;;;;;;;;;;;;;;25.55;62.58;100129.44;4992293;28;1146;-52
2021/08/02 05:53:46;;;;;;;;;;;;;;;25.55;62.02;100131.31;4991897;28;1940;-52
2021/08/02 05:56:16;;;;;;;;;;;;;;;25.54;62.79;100124.22;4992132;28;2171;-52
2021/08/02 05:58:43;;;;;;;;;;;;;;;25.58;62.52;100137.16;4972998;28;1086;-52
2021/08/02 06:01:09;;;;;;;;;;;;;;;25.52;62.17;100129.81;4992394;28;1647;-52
2021/08/02 06:03:42;;;;;;;;;;;;;;;25.54;62.53;100129.63;5018366;28;1830;-51
2021/08/02 06:06:17;;;;;;;;;;;;;;;25.55;63.02;100131.31;5028888;28;1976;-51
2021/08/02 06:08:46;;;;;;;;;;;;;;;25.57;62.15;100138.19;5026555;28;1843;-52
2021/08/02 06:11:15;;;;;;;;;;;;;;;25.57;62.79;100137.38;5029266;28;1417;-51
2021/08/02 06:13:42;;;;;;;;;;;;;;;25.59;62.34;100132.59;5030213;28;1835;-51
2021/08/02 06:16:11;;;;;;;;;;;;;;;25.63;62.14;100135.75;5031682;28;1920;-51
2021/08/02 06:18:51;;;;;;;;;;;;;;;25.63;62.16;100133.06;5023322;28;1962;-52
2021/08/02 06:21:18;;;;;;;;;;;;;;;25.64;62.18;100135.53;5020373;28;1161;-52
2021/08/02 06:23:45;;;;;;;;;;;;;;;25.64;62.15;100127.41;5027404;28;1900;-52
2021/08/02 06:26:14;;;;;;;;;;;;;;;25.64;62.48;100124.72;5014800;28;1966;-51
2021/08/02 06:28:42;;;;;;;;;;;;;;;25.65;62.91;100121.00;5015457;28;1081;-52
2021/08/02 06:31:11;;;;;;;;;;;;;;;25.69;61.91;100132.28;5014437;28;2033;-51
2021/08/02 06:33:38;;;;;;;;;;;;;;;25.69;62.51;100106.03;5020277;28;1889;-52
2021/08/02 06:36:13;;;;;;;;;;;;;;;25.66;62.01;100114.53;5021470;28;1732;-52
2021/08/02 06:38:41;;;;;;;;;;;;;;;25.69;61.94;100124.97;5022415;28;1802;-51
2021/08/02 06:41:18;;;;;;;;;;;;;;;25.69;62.42;100119.56;5024646;28;1669;-52
2021/08/02 06:43:48;;;;;;;;;;;;;;;25.68;62.16;100114.34;5021333;28;1851;-52
2021/08/02 06:46:15;;;;;;;;;;;;;;;25.69;62.06;100110.59;5019459;28;1946;-52
2021/08/02 06:48:42;;;;;;;;;;;;;;;25.70;61.93;100104.97;5024864;28;1869;-52
2021/08/02 06:51:13;;;;;;;;;;;;;;;25.69;62.84;100102.47;5027212;28;1139;-52
2021/08/02 06:53:41;;;;;;;;;;;;;;;25.72;62.04;100105.59;5017416;28;2062;-51
2021/08/02 06:56:07;;;;;;;;;;;;;;;25.74;62.82;100114.38;5014572;28;1956;-53
2021/08/02 06:58:36;;;;;;;;;;;;;;;25.71;62.55;100108.53;5023791;28;1166;-52
2021/08/02 07:01:04;;;;;;;;;;;;;;;25.69;62.13;100099.78;5021685;28;1847;-51
2021/08/02 07:03:34;;;;;;;;;;;;;;;25.74;62.11;100108.13;5020172;28;1915;-51
2021/08/02 07:06:01;;;;;;;;;;;;;;;25.75;62.21;100112.53;5018611;28;1902;-51
2021/08/02 07:08:33;;;;;;;;;;;;;;;25.75;62.35;100137.72;5015959;28;2131;-51
2021/08/02 07:11:04;;;;;;;;;;;;;;;25.75;62.27;100110.66;5021910;28;1962;-51
2021/08/02 07:13:34;;;;;;;;;;;;;;;25.76;62.18;100109.59;5025485;28;1933;-51
2021/08/02 07:16:02;;;;;;;;;;;;;;;25.77;62.47;100103.16;5016721;28;1596;-51
2021/08/02 07:18:32;;;;;;;;;;;;;;;25.77;63.04;100110.47;5020891;28;1700;-51
2021/08/02 07:20:59;;;;;;;;;;;;;;;25.80;62.91;100108.19;5033956;28;1068;-51
2021/08/02 07:23:26;;;;;;;;;;;;;;;25.79;62.07;100111.09;5028186;28;1845;-52
2021/08/02 07:25:56;;;;;;;;;;;;;;;25.80;62.10;100113.63;5033768;28;1977;-52
2021/08/02 07:28:22;;;;;;;;;;;;;;;25.80;62.61;100105.50;5015901;28;1888;-52
2021/08/02 07:31:10;;;;;;;;;;;;;;;25.75;62.54;100072.75;5022276;28;1665;-52
2021/08/02 07:33:38;;;;;;;;;;;;;;;25.82;62.10;100112.56;5016902;28;1916;-51
2021/08/02 07:36:07;;;;;;;;;;;;;;;25.77;62.40;100100.47;5020207;28;1490;-52
2021/08/02 07:38:34;;;;;;;;;;;;;;;25.82;62.56;100099.84;5018525;28;1762;-52
2021/08/02 07:41:06;;;;;;;;;;;;;;;25.84;62.15;100110.50;5023619;28;1667;-51
2021/08/02 07:43:32;;;;;;;;;;;;;;;25.85;62.08;100104.06;5021556;28;2033;-52
2021/08/02 07:45:59;;;;;;;;;;;;;;;25.86;62.01;100105.72;5019107;28;1909;-51
2021/08/02 07:48:26;;;;;;;;;;;;;;;25.82;62.38;100105.28;5028395;28;2098;-51
2021/08/02 07:50:53;;;;;;;;;;;;;;;25.84;62.34;100105.09;5013735;28;1023;-52
2021/08/02 07:53:20;;;;;;;;;;;;;;;25.79;62.39;100114.63;5026547;28;1978;-52
2021/08/02 07:55:57;;;;;;;;;;;;;;;25.84;62.83;100107.78;5033613;28;1050;-51
2021/08/02 07:58:29;;;;;;;;;;;;;;;25.88;62.13;100122.63;5016953;28;1930;-52
2021/08/02 08:00:56;;;;;;;;;;;;;;;25.87;62.47;100118.25;5018615;28;1853;-51
2021/08/02 08:03:24;;;;;;;;;;;;;;;25.86;62.27;100120.09;5018243;28;1977;-52
2021/08/02 08:05:53;;;;;;;;;;;;;;;25.84;62.43;100105.91;5016757;28;1850;-51
2021/08/02 08:08:22;;;;;;;;;;;;;;;25.87;62.17;100118.25;5014441;28;1963;-51
2021/08/02 08:10:49;;;;;;;;;;;;;;;25.88;62.18;100117.19;5016766;28;2527;-51
2021/08/02 08:13:17;;;;;;;;;;;;;;;25.88;62.46;100119.91;5019380;28;1748;-52
2021/08/02 08:15:49;;;;;;;;;;;;;;;25.90;62.58;100117.84;5013088;28;1154;-51
2021/08/02 08:18:25;;;;;;;;;;;;;;;25.87;62.37;100110.94;5026011;28;1720;-51
2021/08/02 08:20:55;;;;;;;;;;;;;;;25.86;62.65;100095.72;5030037;28;1885;-52
2021/08/02 08:23:24;;;;;;;;;;;;;;;25.86;61.99;100111.97;5020365;28;1940;-51
2021/08/02 08:25:54;;;;;;;;;;;;;;;25.89;62.82;100117.00;5012534;28;968;-52
2021/08/02 08:28:21;;;;;;;;;;;;;;;25.89;62.72;100121.59;5024408;28;1971;-51
2021/08/02 08:30:51;;;;;;;;;;;;;;;25.88;62.71;100109.06;5021178;28;1514;-51
2021/08/02 08:33:26;;;;;;;;;;;;;;;25.91;62.33;100117.69;5013535;28;1912;-52
2021/08/02 08:35:57;;;;;;;;;;;;;;;25.94;62.16;100108.31;5013702;28;1600;-52
2021/08/02 08:38:24;;;;;;;;;;;;;;;25.95;61.99;100118.97;5020777;28;1727;-51
2021/08/02 08:40:50;;;;;;;;;;;;;;;25.93;62.09;100101.22;5017131;28;1794;-52
2021/08/02 08:43:21;;;;;;;;;;;;;;;25.91;62.60;100095.19;5017770;28;1503;-52
2021/08/02 08:45:57;;;;;;;;;;;;;;;25.96;62.02;100117.06;5022982;28;1873;-51
2021/08/02 08:48:28;;;;;;;;;;;;;;;25.94;62.31;100114.59;5018819;28;1978;-52
2021/08/02 08:50:59;;;;;;;;;;;;;;;25.93;62.34;100102.06;5012617;28;1068;-52
2021/08/02 08:53:27;;;;;;;;;;;;;;;25.93;62.29;100110.19;5026405;28;1976;-51
2021/08/02 08:55:54;;;;;;;;;;;;;;;25.90;63.14;100096.16;5015052;28;992;-52
2021/08/02 08:58:22;;;;;;;;;;;;;;;25.91;62.22;100098.72;5028555;28;1927;-52
2021/08/02 09:01:05;;;;;;;;;;;;;;;25.95;62.28;100112.72;5012821;28;1927;-51
2021/08/02 09:03:50;;;;;;;;;;;;;;;25.94;62.27;100105.59;5014806;28;2092;-51
2021/08/02 09:06:17;;;;;;;;;;;;;;;25.93;62.20;100103.94;5028510;28;1699;-52
2021/08/02 09:08:45;;;;;;;;;;;;;;;25.92;62.27;100089.53;5031300;28;2168;-51
2021/08/02 09:11:22;;;;;;;;;;;;;;;25.95;62.65;100097.28;5013825;28;1699;-51
2021/08/02 09:13:50;;;;;;;;;;;;;;;25.93;62.25;100101.22;5018291;28;2186;-51
2021/08/02 09:16:21;;;;;;;;;;;;;;;25.95;62.32;100105.41;5031378;28;1942;-51
2021/08/02 09:19:02;;;;;;;;;;;;;;;25.94;62.20;100102.91;5030851;28;1798;-51
2021/08/02 09:21:42;;;;;;;;;;;;;;;25.95;62.28;100093.75;5032240;28;1067;-52
2021/08/02 09:24:12;;;;;;;;;;;;;;;25.96;62.87;100084.56;5012552;28;1071;-51
2021/08/02 09:26:39;;;;;;;;;;;;;;;25.96;62.85;100087.28;5015058;28;1983;-51
2021/08/02 09:29:06;;;;;;;;;;;;;;;25.96;62.43;100100.81;5029925;28;1551;-54
2021/08/02 09:31:43;;;;;;;;;;;;;;;25.96;62.97;100098.13;5017556;28;1406;-51
2021/08/02 09:34:18;;;;;;;;;;;;;;;25.98;62.85;100082.50;5012648;28;1915;-52
2021/08/02 09:36:57;;;;;;;;;;;;;;;25.96;62.83;100090.00;5013712;28;1078;-51
2021/08/02 09:39:35;;;;;;;;;;;;;;;25.97;62.44;100092.50;5035711;28;995;-52
2021/08/02 09:42:04;;;;;;;;;;;;;;;26.01;62.90;100092.94;5035504;28;983;-52
2021/08/02 09:44:35;;;;;;;;;;;;;;;25.97;63.09;100084.38;5016688;28;1839;-52
2021/08/02 09:47:03;;;;;;;;;;;;;;;26.01;62.96;100090.25;5026762;28;1979;-51
2021/08/02 09:49:44;;;;;;;;;;;;;;;25.96;62.77;100080.00;5034386;28;1889;-52
2021/08/02 09:52:11;;;;;;;;;;;;;;;25.96;62.81;100079.16;5019501;28;1841;-51
2021/08/02 09:54:39;;;;;;;;;;;;;;;25.97;63.23;100084.38;5035736;28;1026;-52
2021/08/02 09:57:08;;;;;;;;;;;;;;;25.96;62.22;100079.16;5028285;28;1927;-52
2021/08/02 09:59:40;;;;;;;;;;;;;;;25.99;62.44;100078.78;5021053;28;1904;-51
2021/08/02 10:02:14;;;;;;;;;;;;;;;26.03;62.78;100090.06;5029677;28;1589;-52
2021/08/02 10:04:45;;;;;;;;;;;;;;;25.92;62.93;100077.88;5019124;28;1396;-51
2021/08/02 10:07:16;;;;;;;;;;;;;;;25.96;62.66;100073.72;5033201;28;1978;-52
2021/08/02 10:09:43;;;;;;;;;;;;;;;26.02;62.68;100074.81;5015981;28;1403;-52
2021/08/02 10:14:56;;;;;;;;;;;;;;;25.97;62.97;100060.00;5019617;28;1617;-51
2021/08/02 10:17:33;;;;;;;;;;;;;;;26.00;62.89;100080.44;5016417;28;1941;-51
2021/08/02 10:20:15;;;;;;;;;;;;;;;26.02;62.79;100082.94;5033938;28;1873;-51
2021/08/02 10:22:54;;;;;;;;;;;;;;;25.99;62.73;100070.63;5029548;28;1774;-51
2021/08/02 10:25:38;;;;;;;;;;;;;;;26.00;62.70;100077.72;5035364;28;1075;-50
2021/08/02 10:28:12;;;;;;;;;;;;;;;25.96;62.45;100062.91;5017208;28;2238;-51
2021/08/02 10:30:39;;;;;;;;;;;;;;;25.97;63.31;100065.41;5019992;28;1396;-52
2021/08/02 10:33:05;;;;;;;;;;;;;;;26.02;62.44;100075.66;5031400;28;1650;-52
2021/08/02 10:35:39;;;;;;;;;;;;;;;26.02;62.94;100078.34;5034088;28;1530;-51
2021/08/02 10:38:07;;;;;;;;;;;;;;;25.94;62.49;100051.41;5015505;28;1702;-52
2021/08/02 10:40:44;;;;;;;;;;;;;;;26.00;62.62;100077.72;5014753;28;1055;-52
2021/08/02 10:43:14;;;;;;;;;;;;;;;26.01;63.01;100049.59;5015106;28;1062;-52
2021/08/02 10:45:47;;;;;;;;;;;;;;;26.03;62.84;100068.38;5032491;28;1495;-52
2021/08/02 10:48:22;;;;;;;;;;;;;;;26.05;63.26;100053.59;5030916;28;1995;-51
2021/08/02 10:50:55;;;;;;;;;;;;;;;26.06;63.11;100049.81;5017350;28;1560;-52
2021/08/02 10:53:21;;;;;;;;;;;;;;;26.03;62.79;100058.38;5028226;28;1764;-51
2021/08/02 10:55:50;;;;;;;;;;;;;;;26.03;62.72;100060.25;5035073;28;987;-50
2021/08/02 10:58:36;;;;;;;;;;;;;;;26.05;63.32;100052.75;5017263;28;1968;-52
2021/08/02 11:01:11;;;;;;;;;;;;;;;26.03;63.17;100050.25;5016320;28;1984;-51
2021/08/02 11:03:49;;;;;;;;;;;;;;;26.04;63.24;100046.47;5029916;28;1819;-52
2021/08/02 11:06:17;;;;;;;;;;;;;;;26.01;63.58;100027.94;5031062;28;1519;-51
2021/08/02 11:08:48;;;;;;;;;;;;;;;26.05;63.03;100034.63;5015376;28;1902;-52
2021/08/02 11:11:28;;;;;;;;;;;;;;;26.03;63.05;100030.44;5033405;28;1624;-52
2021/08/02 11:14:07;;;;;;;;;;;;;;;26.05;63.21;100040.03;5029092;28;1675;-52
2021/08/02 11:16:41;;;;;;;;;;;;;;;26.02;63.61;100045.84;5029005;28;1483;-52
2021/08/02 11:19:20;;;;;;;;;;;;;;;26.05;63.05;100050.88;5021753;28;1999;-52
2021/08/02 11:22:04;;;;;;;;;;;;;;;26.04;63.45;100043.78;5015317;28;1756;-52
2021/08/02 11:24:41;;;;;;;;;;;;;;;26.06;63.36;100030.84;5014800;28;1080;-51
2021/08/02 11:27:13;;;;;;;;;;;;;;;26.05;63.50;100033.78;5015740;28;1910;-51
2021/08/02 11:29:40;;;;;;;;;;;;;;;26.02;63.43;100024.16;5020989;28;1599;-51
2021/08/02 11:32:10;;;;;;;;;;;;;;;26.05;63.20;100041.91;5017164;28;1751;-52
2021/08/02 11:34:40;;;;;;;;;;;;;;;26.03;63.51;100025.84;5015518;28;2220;-51
2021/08/02 11:37:22;;;;;;;;;;;;;;;26.03;62.77;100030.44;5016520;28;1384;-52
2021/08/02 11:40:04;;;;;;;;;;;;;;;26.11;62.90;100032.97;5015376;28;1662;-52
2021/08/02 11:42:37;;;;;;;;;;;;;;;26.07;63.33;100020.88;5015092;28;1510;-51
2021/08/02 11:45:06;;;;;;;;;;;;;;;26.10;63.18;100036.72;5015922;28;1641;-52
2021/08/02 11:47:35;;;;;;;;;;;;;;;26.07;62.75;100010.88;5033144;28;2015;-52
2021/08/02 11:50:09;;;;;;;;;;;;;;;26.07;63.61;100026.28;5034280;28;1055;-51
2021/08/02 11:52:39;;;;;;;;;;;;;;;26.10;63.48;100015.91;5032302;28;1563;-51
2021/08/02 11:55:07;;;;;;;;;;;;;;;26.09;62.93;100022.34;5014787;28;1000;-52
2021/08/02 11:57:40;;;;;;;;;;;;;;;26.09;63.55;100019.63;5025206;28;1902;-52
2021/08/02 12:00:11;;;;;;;;;;;;;;;26.10;63.46;100037.56;5031183;28;1535;-51
2021/08/02 12:03:08;;;;;;;;;;;;;;;26.12;63.66;100018.38;5021464;28;1776;-52
2021/08/02 12:06:05;;;;;;;;;;;;;;;26.08;63.68;100007.09;5024683;28;1828;-52
2021/08/02 12:08:48;;;;;;;;;;;;;;;26.11;62.79;100016.72;5015696;28;1983;-52
2021/08/02 12:14:02;;;;;;;;;;;;;;;26.11;63.37;100009.44;5031927;28;2301;-52
2021/08/02 12:16:33;;;;;;;;;;;;;;;26.07;63.08;100005.44;5020528;28;1921;-51
2021/08/02 12:19:04;;;;;;;;;;;;;;;26.06;63.86;100003.75;5024985;28;1756;-52
2021/08/02 12:21:32;;;;;;;;;;;;;;;26.09;63.01;100003.38;5033772;28;1145;-51
2021/08/02 12:24:08;;;;;;;;;;;;;;;26.10;63.65;99994.22;5031807;28;1510;-52
2021/08/02 12:26:36;;;;;;;;;;;;;;;26.12;63.52;100013.81;5032393;28;1430;-52
2021/08/02 12:29:20;;;;;;;;;;;;;;;26.10;63.28;100015.91;5014674;28;2196;-52
2021/08/02 12:31:56;;;;;;;;;;;;;;;26.11;63.29;100006.72;5018897;28;1691;-51
2021/08/02 12:34:22;;;;;;;;;;;;;;;26.10;63.08;100013.19;5014444;28;1600;-52
2021/08/02 12:36:58;;;;;;;;;;;;;;;26.13;63.33;100020.91;5013649;28;1922;-52
2021/08/02 12:44:48;;;;;;;;;;;;;;;26.12;63.07;100011.13;5032749;28;1614;-52
2021/08/02 12:47:18;;;;;;;;;;;;;;;26.13;63.22;99998.41;5032681;28;1131;-51
2021/08/02 12:49:56;;;;;;;;;;;;;;;26.12;62.94;99994.84;5015075;28;2106;-52
2021/08/02 12:52:28;;;;;;;;;;;;;;;26.12;63.85;99986.72;5019145;28;1693;-52
2021/08/02 12:55:03;;;;;;;;;;;;;;;26.14;63.69;99984.66;5033318;28;1163;-52
2021/08/02 12:57:38;;;;;;;;;;;;;;;26.11;63.00;100001.28;5032015;28;1608;-52
2021/08/02 13:00:12;;;;;;;;;;;;;;;26.12;63.50;99994.00;5031754;28;1967;-52
2021/08/02 13:02:38;;;;;;;;;;;;;;;26.10;63.60;99983.38;5031275;28;1598;-52
2021/08/02 13:05:07;;;;;;;;;;;;;;;26.15;63.76;99989.00;5024235;28;1948;-52
2021/08/02 13:07:38;;;;;;;;;;;;;;;26.14;63.81;99981.94;5027220;28;1902;-52
2021/08/02 13:10:05;;;;;;;;;;;;;;;26.14;63.19;99986.50;5016447;28;1451;-52
2021/08/02 13:12:32;;;;;;;;;;;;;;;26.13;63.31;99982.97;5033396;28;1603;-51
2021/08/02 13:14:59;;;;;;;;;;;;;;;26.15;63.41;99991.72;5017365;28;1394;-52
2021/08/02 13:17:27;;;;;;;;;;;;;;;26.10;63.14;99986.09;5017189;28;1107;-52
2021/08/02 13:19:57;;;;;;;;;;;;;;;26.10;63.90;99977.97;5036568;28;1055;-51
2021/08/02 13:22:30;;;;;;;;;;;;;;;26.14;64.11;99991.91;5035551;28;1913;-51